sensor_id;sensor_type;location;lat;lon;timestamp;temperature;humidity
19928;DHT22;10126;50.876;4.470;2023-03-26T00:01:23;10.20;99.90
19928;DHT22;10126;50.876;4.470;2023-03-26T00:03:25;10.10;99.90
19928;DHT22;10126;50.876;4.470;2023-03-26T00:05:27;10.00;99.90
19928;DHT22;10126;50.876;4.470;2023-03-26T00:07:27;10.20;99.90
19928;DHT22;10126;50.876;4.470;2023-03-26T00:09:28;10.20;99.90
19928;DHT22;10126;50.876;4.470;2023-03-26T00:11:29;10.30;99.90
19928;DHT22;10126;50.876;4.470;2023-03-26T00:13:30;10.20;99.90
19928;DHT22;10126;50.876;4.470;2023-03-26T00:15:32;10.20;99.90
19928;DHT22;10126;50.876;4.470;2023-03-26T00:17:33;10.10;99.90
19928;DHT22;10126;50.876;4.470;2023-03-26T00:19:36;10.10;99.90
19928;DHT22;10126;50.876;4.470;2023-03-26T00:21:37;10.30;99.90
19928;DHT22;10126;50.876;4.470;2023-03-26T00:23:38;10.40;99.90
19928;DHT22;10126;50.876;4.470;2023-03-26T00:25:39;10.40;99.90
19928;DHT22;10126;50.876;4.470;2023-03-26T00:27:41;10.30;99.90
19928;DHT22;10126;50.876;4.470;2023-03-26T00:29:44;10.40;99.90
19928;DHT22;10126;50.876;4.470;2023-03-26T00:31:47;10.40;99.90
19928;DHT22;10126;50.876;4.470;2023-03-26T00:33:50;10.50;99.90
19928;DHT22;10126;50.876;4.470;2023-03-26T00:35:56;10.60;99.90
19928;DHT22;10126;50.876;4.470;2023-03-26T00:37:57;10.60;99.90
19928;DHT22;10126;50.876;4.470;2023-03-26T00:39:59;10.60;99.90
19928;DHT22;10126;50.876;4.470;2023-03-26T00:42:04;10.60;99.90
19928;DHT22;10126;50.876;4.470;2023-03-26T00:44:09;10.70;99.90
19928;DHT22;10126;50.876;4.470;2023-03-26T00:46:10;10.70;99.90
19928;DHT22;10126;50.876;4.470;2023-03-26T00:48:10;10.90;99.90
19928;DHT22;10126;50.876;4.470;2023-03-26T00:50:12;10.80;99.90
19928;DHT22;10126;50.876;4.470;2023-03-26T00:52:16;10.80;99.90
19928;DHT22;10126;50.876;4.470;2023-03-26T00:54:20;10.60;99.90
19928;DHT22;10126;50.876;4.470;2023-03-26T00:56:23;10.70;99.90
19928;DHT22;10126;50.876;4.470;2023-03-26T00:58:27;10.80;99.90
19928;DHT22;10126;50.876;4.470;2023-03-26T01:00:31;10.80;99.90
19928;DHT22;10126;50.876;4.470;2023-03-26T01:02:34;10.70;99.90
19928;DHT22;10126;50.876;4.470;2023-03-26T01:04:35;10.70;99.90
19928;DHT22;10126;50.876;4.470;2023-03-26T01:06:38;10.70;99.90
19928;DHT22;10126;50.876;4.470;2023-03-26T01:08:47;10.70;99.90
19928;DHT22;10126;50.876;4.470;2023-03-26T01:10:50;10.70;99.90
19928;DHT22;10126;50.876;4.470;2023-03-26T01:12:51;10.70;99.90
19928;DHT22;10126;50.876;4.470;2023-03-26T01:14:55;10.60;99.90
19928;DHT22;10126;50.876;4.470;2023-03-26T01:17:00;10.50;99.90
19928;DHT22;10126;50.876;4.470;2023-03-26T01:19:01;10.50;99.90
19928;DHT22;10126;50.876;4.470;2023-03-26T01:21:02;10.40;99.90
19928;DHT22;10126;50.876;4.470;2023-03-26T01:23:07;10.40;99.90
19928;DHT22;10126;50.876;4.470;2023-03-26T01:25:08;10.20;99.90
19928;DHT22;10126;50.876;4.470;2023-03-26T01:27:21;9.90;99.90
19928;DHT22;10126;50.876;4.470;2023-03-26T01:29:36;9.90;99.90
19928;DHT22;10126;50.876;4.470;2023-03-26T01:33:53;10.10;99.90
19928;DHT22;10126;50.876;4.470;2023-03-26T01:36:24;10.00;99.90
19928;DHT22;10126;50.876;4.470;2023-03-26T01:38:52;10.00;99.90
19928;DHT22;10126;50.876;4.470;2023-03-26T01:40:59;9.90;99.90
19928;DHT22;10126;50.876;4.470;2023-03-26T01:45:17;9.90;99.90
19928;DHT22;10126;50.876;4.470;2023-03-26T01:47:21;10.00;99.90
19928;DHT22;10126;50.876;4.470;2023-03-26T01:49:21;9.80;99.90
19928;DHT22;10126;50.876;4.470;2023-03-26T01:51:31;9.90;99.90
19928;DHT22;10126;50.876;4.470;2023-03-26T01:53:34;9.90;99.90
19928;DHT22;10126;50.876;4.470;2023-03-26T01:56:02;9.90;99.90
19928;DHT22;10126;50.876;4.470;2023-03-26T01:58:11;9.80;99.90
19928;DHT22;10126;50.876;4.470;2023-03-26T02:00:24;9.80;99.90
19928;DHT22;10126;50.876;4.470;2023-03-26T02:02:34;9.80;99.90
19928;DHT22;10126;50.876;4.470;2023-03-26T02:07:09;9.90;99.90
19928;DHT22;10126;50.876;4.470;2023-03-26T02:09:16;9.90;99.90
19928;DHT22;10126;50.876;4.470;2023-03-26T02:11:19;9.80;99.90
19928;DHT22;10126;50.876;4.470;2023-03-26T02:13:20;9.90;99.90
19928;DHT22;10126;50.876;4.470;2023-03-26T02:15:21;9.80;99.90
19928;DHT22;10126;50.876;4.470;2023-03-26T02:17:22;9.80;99.90
19928;DHT22;10126;50.876;4.470;2023-03-26T02:19:24;9.90;99.90
19928;DHT22;10126;50.876;4.470;2023-03-26T02:21:26;9.80;99.90
19928;DHT22;10126;50.876;4.470;2023-03-26T02:23:27;9.80;99.90
19928;DHT22;10126;50.876;4.470;2023-03-26T02:25:29;9.70;99.90
19928;DHT22;10126;50.876;4.470;2023-03-26T02:27:29;9.70;99.90
19928;DHT22;10126;50.876;4.470;2023-03-26T02:29:30;9.60;99.90
19928;DHT22;10126;50.876;4.470;2023-03-26T02:31:30;9.60;99.90
19928;DHT22;10126;50.876;4.470;2023-03-26T02:33:31;9.60;99.90
19928;DHT22;10126;50.876;4.470;2023-03-26T02:35:32;9.50;99.90
19928;DHT22;10126;50.876;4.470;2023-03-26T02:37:33;9.60;99.90
19928;DHT22;10126;50.876;4.470;2023-03-26T02:39:33;9.60;99.90
19928;DHT22;10126;50.876;4.470;2023-03-26T02:41:34;9.70;99.90
19928;DHT22;10126;50.876;4.470;2023-03-26T02:43:35;9.70;99.90
19928;DHT22;10126;50.876;4.470;2023-03-26T02:45:38;9.70;99.90
19928;DHT22;10126;50.876;4.470;2023-03-26T02:47:44;9.80;99.90
19928;DHT22;10126;50.876;4.470;2023-03-26T02:49:45;9.90;99.90
19928;DHT22;10126;50.876;4.470;2023-03-26T02:51:46;9.80;99.90
19928;DHT22;10126;50.876;4.470;2023-03-26T02:53:46;9.90;99.90
19928;DHT22;10126;50.876;4.470;2023-03-26T02:55:47;10.10;99.90
19928;DHT22;10126;50.876;4.470;2023-03-26T02:57:47;10.20;99.90
19928;DHT22;10126;50.876;4.470;2023-03-26T02:59:48;10.30;99.90
19928;DHT22;10126;50.876;4.470;2023-03-26T03:01:50;10.30;99.90
19928;DHT22;10126;50.876;4.470;2023-03-26T03:03:50;10.40;99.90
19928;DHT22;10126;50.876;4.470;2023-03-26T03:05:52;10.50;99.90
19928;DHT22;10126;50.876;4.470;2023-03-26T03:07:53;10.40;99.90
19928;DHT22;10126;50.876;4.470;2023-03-26T03:09:57;10.30;99.90
19928;DHT22;10126;50.876;4.470;2023-03-26T03:12:01;10.30;99.90
19928;DHT22;10126;50.876;4.470;2023-03-26T03:14:02;10.30;99.90
19928;DHT22;10126;50.876;4.470;2023-03-26T03:16:03;10.20;99.90
19928;DHT22;10126;50.876;4.470;2023-03-26T03:18:04;10.20;99.90
19928;DHT22;10126;50.876;4.470;2023-03-26T03:20:06;10.20;99.90
19928;DHT22;10126;50.876;4.470;2023-03-26T03:22:10;10.30;99.90
19928;DHT22;10126;50.876;4.470;2023-03-26T03:24:11;10.30;99.90
19928;DHT22;10126;50.876;4.470;2023-03-26T03:26:15;10.30;99.90
19928;DHT22;10126;50.876;4.470;2023-03-26T03:28:19;10.30;99.90
19928;DHT22;10126;50.876;4.470;2023-03-26T03:30:20;10.20;99.90
19928;DHT22;10126;50.876;4.470;2023-03-26T03:32:21;10.30;99.90
19928;DHT22;10126;50.876;4.470;2023-03-26T03:34:22;10.20;99.90
19928;DHT22;10126;50.876;4.470;2023-03-26T03:36:24;10.20;99.90
19928;DHT22;10126;50.876;4.470;2023-03-26T03:38:27;10.10;99.90
19928;DHT22;10126;50.876;4.470;2023-03-26T03:40:27;10.10;99.90
19928;DHT22;10126;50.876;4.470;2023-03-26T03:42:28;10.20;99.90
19928;DHT22;10126;50.876;4.470;2023-03-26T03:44:29;10.40;99.90
19928;DHT22;10126;50.876;4.470;2023-03-26T03:46:30;10.40;99.90
19928;DHT22;10126;50.876;4.470;2023-03-26T03:48:30;10.40;99.90
19928;DHT22;10126;50.876;4.470;2023-03-26T03:50:35;10.30;99.90
19928;DHT22;10126;50.876;4.470;2023-03-26T03:52:35;10.40;99.90
19928;DHT22;10126;50.876;4.470;2023-03-26T03:54:36;10.30;99.90
19928;DHT22;10126;50.876;4.470;2023-03-26T03:56:37;10.30;99.90
19928;DHT22;10126;50.876;4.470;2023-03-26T03:58:38;10.30;99.90
19928;DHT22;10126;50.876;4.470;2023-03-26T04:00:40;10.40;99.90
19928;DHT22;10126;50.876;4.470;2023-03-26T04:02:41;10.20;99.90
19928;DHT22;10126;50.876;4.470;2023-03-26T04:04:42;9.90;99.90
19928;DHT22;10126;50.876;4.470;2023-03-26T04:06:45;9.90;99.90
19928;DHT22;10126;50.876;4.470;2023-03-26T04:08:46;9.80;99.90
19928;DHT22;10126;50.876;4.470;2023-03-26T04:10:47;9.80;99.90
19928;DHT22;10126;50.876;4.470;2023-03-26T04:12:48;9.90;99.90
19928;DHT22;10126;50.876;4.470;2023-03-26T04:14:49;9.80;99.90
19928;DHT22;10126;50.876;4.470;2023-03-26T04:16:49;9.80;99.90
19928;DHT22;10126;50.876;4.470;2023-03-26T04:18:50;9.90;99.90
19928;DHT22;10126;50.876;4.470;2023-03-26T04:20:51;10.00;99.90
19928;DHT22;10126;50.876;4.470;2023-03-26T04:22:51;9.90;99.90
19928;DHT22;10126;50.876;4.470;2023-03-26T04:24:52;10.00;99.90
19928;DHT22;10126;50.876;4.470;2023-03-26T04:26:55;10.00;99.90
19928;DHT22;10126;50.876;4.470;2023-03-26T04:28:59;10.00;99.90
19928;DHT22;10126;50.876;4.470;2023-03-26T04:31:02;10.00;99.90
19928;DHT22;10126;50.876;4.470;2023-03-26T04:33:03;10.00;99.90
19928;DHT22;10126;50.876;4.470;2023-03-26T04:35:05;10.00;99.90
19928;DHT22;10126;50.876;4.470;2023-03-26T04:37:16;9.90;99.90
19928;DHT22;10126;50.876;4.470;2023-03-26T04:39:20;9.90;99.90
19928;DHT22;10126;50.876;4.470;2023-03-26T04:41:21;10.00;99.90
19928;DHT22;10126;50.876;4.470;2023-03-26T04:43:25;10.10;99.90
19928;DHT22;10126;50.876;4.470;2023-03-26T04:45:35;10.20;99.90
19928;DHT22;10126;50.876;4.470;2023-03-26T04:47:36;10.40;99.90
19928;DHT22;10126;50.876;4.470;2023-03-26T04:49:38;10.20;99.90
19928;DHT22;10126;50.876;4.470;2023-03-26T04:51:40;10.10;99.90
19928;DHT22;10126;50.876;4.470;2023-03-26T04:53:41;10.00;99.90
19928;DHT22;10126;50.876;4.470;2023-03-26T04:56:10;10.00;99.90
19928;DHT22;10126;50.876;4.470;2023-03-26T04:58:13;9.90;99.90
19928;DHT22;10126;50.876;4.470;2023-03-26T05:00:15;9.80;99.90
19928;DHT22;10126;50.876;4.470;2023-03-26T05:02:18;9.80;99.90
19928;DHT22;10126;50.876;4.470;2023-03-26T05:04:19;9.80;99.90
19928;DHT22;10126;50.876;4.470;2023-03-26T05:06:20;9.90;99.90
19928;DHT22;10126;50.876;4.470;2023-03-26T05:08:21;9.90;99.90
19928;DHT22;10126;50.876;4.470;2023-03-26T05:10:22;9.90;99.90
19928;DHT22;10126;50.876;4.470;2023-03-26T05:12:22;9.90;99.90
19928;DHT22;10126;50.876;4.470;2023-03-26T05:14:23;9.90;99.90
19928;DHT22;10126;50.876;4.470;2023-03-26T05:16:24;9.90;99.90
19928;DHT22;10126;50.876;4.470;2023-03-26T05:18:25;9.70;99.90
19928;DHT22;10126;50.876;4.470;2023-03-26T05:20:27;9.80;99.90
19928;DHT22;10126;50.876;4.470;2023-03-26T05:22:29;9.70;99.90
19928;DHT22;10126;50.876;4.470;2023-03-26T05:24:30;9.70;99.90
19928;DHT22;10126;50.876;4.470;2023-03-26T05:26:31;9.70;99.90
19928;DHT22;10126;50.876;4.470;2023-03-26T05:28:32;9.70;99.90
19928;DHT22;10126;50.876;4.470;2023-03-26T05:30:33;9.70;99.90
19928;DHT22;10126;50.876;4.470;2023-03-26T05:32:34;9.60;99.90
19928;DHT22;10126;50.876;4.470;2023-03-26T05:34:44;9.60;99.90
19928;DHT22;10126;50.876;4.470;2023-03-26T05:36:44;9.70;99.90
19928;DHT22;10126;50.876;4.470;2023-03-26T05:38:45;9.90;99.90
19928;DHT22;10126;50.876;4.470;2023-03-26T05:40:47;9.90;99.90
19928;DHT22;10126;50.876;4.470;2023-03-26T05:42:47;9.90;99.90
19928;DHT22;10126;50.876;4.470;2023-03-26T05:44:48;10.00;99.90
19928;DHT22;10126;50.876;4.470;2023-03-26T05:46:49;10.10;99.90
19928;DHT22;10126;50.876;4.470;2023-03-26T05:48:50;10.10;99.90
19928;DHT22;10126;50.876;4.470;2023-03-26T05:50:56;10.20;99.90
19928;DHT22;10126;50.876;4.470;2023-03-26T05:52:57;10.20;99.90
19928;DHT22;10126;50.876;4.470;2023-03-26T05:54:57;10.20;99.90
19928;DHT22;10126;50.876;4.470;2023-03-26T05:56:58;10.30;99.90
19928;DHT22;10126;50.876;4.470;2023-03-26T05:59:00;10.30;99.90
19928;DHT22;10126;50.876;4.470;2023-03-26T06:01:06;10.30;99.90
19928;DHT22;10126;50.876;4.470;2023-03-26T06:03:07;10.30;99.90
19928;DHT22;10126;50.876;4.470;2023-03-26T06:05:11;10.40;99.90
19928;DHT22;10126;50.876;4.470;2023-03-26T06:07:12;10.30;99.90
19928;DHT22;10126;50.876;4.470;2023-03-26T06:09:13;10.30;99.90
19928;DHT22;10126;50.876;4.470;2023-03-26T06:11:15;10.50;99.90
19928;DHT22;10126;50.876;4.470;2023-03-26T06:13:16;10.50;99.90
19928;DHT22;10126;50.876;4.470;2023-03-26T06:15:17;10.50;99.90
19928;DHT22;10126;50.876;4.470;2023-03-26T06:17:17;10.60;99.90
19928;DHT22;10126;50.876;4.470;2023-03-26T06:19:18;10.50;99.90
19928;DHT22;10126;50.876;4.470;2023-03-26T06:21:19;10.40;99.90
19928;DHT22;10126;50.876;4.470;2023-03-26T06:23:19;10.20;99.90
19928;DHT22;10126;50.876;4.470;2023-03-26T06:25:26;10.10;99.90
19928;DHT22;10126;50.876;4.470;2023-03-26T06:27:26;9.80;99.90
19928;DHT22;10126;50.876;4.470;2023-03-26T06:29:27;9.80;99.90
19928;DHT22;10126;50.876;4.470;2023-03-26T06:31:28;9.70;99.90
19928;DHT22;10126;50.876;4.470;2023-03-26T06:33:29;9.60;99.90
19928;DHT22;10126;50.876;4.470;2023-03-26T06:35:30;9.60;99.90
19928;DHT22;10126;50.876;4.470;2023-03-26T06:37:31;9.60;99.90
19928;DHT22;10126;50.876;4.470;2023-03-26T06:39:31;9.60;99.90
19928;DHT22;10126;50.876;4.470;2023-03-26T06:41:33;9.40;99.90
19928;DHT22;10126;50.876;4.470;2023-03-26T06:43:34;9.30;99.90
19928;DHT22;10126;50.876;4.470;2023-03-26T06:45:35;9.20;99.90
19928;DHT22;10126;50.876;4.470;2023-03-26T06:47:36;9.20;99.90
19928;DHT22;10126;50.876;4.470;2023-03-26T06:49:37;9.20;99.90
19928;DHT22;10126;50.876;4.470;2023-03-26T06:51:37;9.10;99.90
19928;DHT22;10126;50.876;4.470;2023-03-26T06:53:40;9.00;99.90
19928;DHT22;10126;50.876;4.470;2023-03-26T06:55:40;9.10;99.90
19928;DHT22;10126;50.876;4.470;2023-03-26T06:57:41;9.10;99.90
19928;DHT22;10126;50.876;4.470;2023-03-26T06:59:44;9.10;99.90
19928;DHT22;10126;50.876;4.470;2023-03-26T07:01:45;9.10;99.90
19928;DHT22;10126;50.876;4.470;2023-03-26T07:03:48;9.00;99.90
19928;DHT22;10126;50.876;4.470;2023-03-26T07:05:49;8.90;99.90
19928;DHT22;10126;50.876;4.470;2023-03-26T07:07:49;8.90;99.90
19928;DHT22;10126;50.876;4.470;2023-03-26T07:09:50;8.90;99.90
19928;DHT22;10126;50.876;4.470;2023-03-26T07:11:51;8.90;99.90
19928;DHT22;10126;50.876;4.470;2023-03-26T07:13:52;8.90;99.90
19928;DHT22;10126;50.876;4.470;2023-03-26T07:15:52;8.90;99.90
19928;DHT22;10126;50.876;4.470;2023-03-26T07:17:54;8.70;99.90
19928;DHT22;10126;50.876;4.470;2023-03-26T07:19:54;8.50;99.90
19928;DHT22;10126;50.876;4.470;2023-03-26T07:21:57;8.40;99.90
19928;DHT22;10126;50.876;4.470;2023-03-26T07:23:58;8.40;99.90
19928;DHT22;10126;50.876;4.470;2023-03-26T07:26:07;8.30;99.90
19928;DHT22;10126;50.876;4.470;2023-03-26T07:30:48;8.50;99.90
19928;DHT22;10126;50.876;4.470;2023-03-26T07:35:41;8.30;99.90
19928;DHT22;10126;50.876;4.470;2023-03-26T07:37:53;8.30;99.90
19928;DHT22;10126;50.876;4.470;2023-03-26T07:40:00;8.30;99.90
19928;DHT22;10126;50.876;4.470;2023-03-26T07:42:22;8.30;99.90
19928;DHT22;10126;50.876;4.470;2023-03-26T07:46:44;8.30;99.90
19928;DHT22;10126;50.876;4.470;2023-03-26T07:48:47;8.40;99.90
19928;DHT22;10126;50.876;4.470;2023-03-26T07:50:48;8.40;99.90
19928;DHT22;10126;50.876;4.470;2023-03-26T07:53:01;8.50;99.90
19928;DHT22;10126;50.876;4.470;2023-03-26T07:55:01;8.20;99.90
19928;DHT22;10126;50.876;4.470;2023-03-26T07:59:58;8.30;99.90
19928;DHT22;10126;50.876;4.470;2023-03-26T08:06:37;8.00;99.90
19928;DHT22;10126;50.876;4.470;2023-03-26T08:08:51;8.00;99.90
19928;DHT22;10126;50.876;4.470;2023-03-26T08:13:58;8.20;99.90
19928;DHT22;10126;50.876;4.470;2023-03-26T08:16:30;8.10;99.90
19928;DHT22;10126;50.876;4.470;2023-03-26T08:18:50;8.10;99.90
19928;DHT22;10126;50.876;4.470;2023-03-26T08:21:52;8.10;99.90
19928;DHT22;10126;50.876;4.470;2023-03-26T08:30:28;8.30;99.90
19928;DHT22;10126;50.876;4.470;2023-03-26T08:32:30;8.00;99.90
19928;DHT22;10126;50.876;4.470;2023-03-26T08:34:31;7.80;99.90
19928;DHT22;10126;50.876;4.470;2023-03-26T08:36:31;7.70;99.90
19928;DHT22;10126;50.876;4.470;2023-03-26T08:38:32;7.80;99.90
19928;DHT22;10126;50.876;4.470;2023-03-26T09:02:45;7.50;99.90
19928;DHT22;10126;50.876;4.470;2023-03-26T09:19:35;7.40;99.90
19928;DHT22;10126;50.876;4.470;2023-03-26T09:26:25;7.40;99.90
19928;DHT22;10126;50.876;4.470;2023-03-26T09:33:55;7.30;99.90
19928;DHT22;10126;50.876;4.470;2023-03-26T09:38:43;7.50;99.90
19928;DHT22;10126;50.876;4.470;2023-03-26T09:45:47;7.40;99.90
19928;DHT22;10126;50.876;4.470;2023-03-26T09:48:31;7.30;99.90
19928;DHT22;10126;50.876;4.470;2023-03-26T09:55:47;7.30;99.90
19928;DHT22;10126;50.876;4.470;2023-03-26T10:00:27;7.50;99.90
19928;DHT22;10126;50.876;4.470;2023-03-26T10:05:34;7.50;99.90
19928;DHT22;10126;50.876;4.470;2023-03-26T10:21:46;7.60;99.90
19928;DHT22;10126;50.876;4.470;2023-03-26T10:26:23;7.60;99.90
19928;DHT22;10126;50.876;4.470;2023-03-26T10:33:36;7.40;99.90
19928;DHT22;10126;50.876;4.470;2023-03-26T10:35:51;7.40;99.90
19928;DHT22;10126;50.876;4.470;2023-03-26T10:38:24;7.40;99.90
19928;DHT22;10126;50.876;4.470;2023-03-26T10:51:55;7.40;99.90
19928;DHT22;10126;50.876;4.470;2023-03-26T10:54:01;7.30;99.90
19928;DHT22;10126;50.876;4.470;2023-03-26T10:58:22;7.40;99.90
19928;DHT22;10126;50.876;4.470;2023-03-26T11:00:25;7.40;99.90
19928;DHT22;10126;50.876;4.470;2023-03-26T11:02:30;7.40;99.90
19928;DHT22;10126;50.876;4.470;2023-03-26T11:04:48;7.40;99.90
19928;DHT22;10126;50.876;4.470;2023-03-26T11:11:25;7.50;99.90
19928;DHT22;10126;50.876;4.470;2023-03-26T11:13:52;7.50;99.90
19928;DHT22;10126;50.876;4.470;2023-03-26T11:16:22;7.50;99.90
19928;DHT22;10126;50.876;4.470;2023-03-26T11:20:56;7.50;99.90
19928;DHT22;10126;50.876;4.470;2023-03-26T11:25:33;7.70;99.90
19928;DHT22;10126;50.876;4.470;2023-03-26T11:30:28;7.70;99.90
19928;DHT22;10126;50.876;4.470;2023-03-26T11:32:53;7.80;99.90
19928;DHT22;10126;50.876;4.470;2023-03-26T11:35:05;7.80;99.90
19928;DHT22;10126;50.876;4.470;2023-03-26T11:37:15;7.90;99.90
19928;DHT22;10126;50.876;4.470;2023-03-26T11:39:24;7.80;99.90
19928;DHT22;10126;50.876;4.470;2023-03-26T11:41:27;7.80;99.90
19928;DHT22;10126;50.876;4.470;2023-03-26T11:43:34;7.80;99.90
19928;DHT22;10126;50.876;4.470;2023-03-26T11:45:40;7.70;99.90
19928;DHT22;10126;50.876;4.470;2023-03-26T11:47:46;7.70;99.90
19928;DHT22;10126;50.876;4.470;2023-03-26T11:49:50;7.70;99.90
19928;DHT22;10126;50.876;4.470;2023-03-26T11:51:52;7.80;99.90
19928;DHT22;10126;50.876;4.470;2023-03-26T11:53:53;7.80;99.90
19928;DHT22;10126;50.876;4.470;2023-03-26T11:58:36;7.90;99.90
19928;DHT22;10126;50.876;4.470;2023-03-26T12:00:39;7.90;99.90
19928;DHT22;10126;50.876;4.470;2023-03-26T12:02:42;7.90;99.90
19928;DHT22;10126;50.876;4.470;2023-03-26T12:04:50;8.00;99.90
19928;DHT22;10126;50.876;4.470;2023-03-26T12:07:17;8.00;99.90
19928;DHT22;10126;50.876;4.470;2023-03-26T12:09:19;7.90;99.90
19928;DHT22;10126;50.876;4.470;2023-03-26T12:11:24;7.90;99.90
19928;DHT22;10126;50.876;4.470;2023-03-26T12:13:38;8.00;99.90
19928;DHT22;10126;50.876;4.470;2023-03-26T12:15:42;8.00;99.90
19928;DHT22;10126;50.876;4.470;2023-03-26T12:17:43;8.00;99.90
19928;DHT22;10126;50.876;4.470;2023-03-26T12:19:45;8.00;99.90
19928;DHT22;10126;50.876;4.470;2023-03-26T12:21:48;8.00;99.90
19928;DHT22;10126;50.876;4.470;2023-03-26T12:26:14;8.20;99.90
19928;DHT22;10126;50.876;4.470;2023-03-26T12:28:17;8.30;99.90
19928;DHT22;10126;50.876;4.470;2023-03-26T12:30:27;8.30;99.90
19928;DHT22;10126;50.876;4.470;2023-03-26T12:32:31;8.30;99.90
19928;DHT22;10126;50.876;4.470;2023-03-26T12:34:36;8.60;99.90
19928;DHT22;10126;50.876;4.470;2023-03-26T12:36:37;8.50;99.90
19928;DHT22;10126;50.876;4.470;2023-03-26T12:38:38;8.40;99.90
19928;DHT22;10126;50.876;4.470;2023-03-26T12:40:42;8.40;99.90
19928;DHT22;10126;50.876;4.470;2023-03-26T12:42:51;8.40;99.90
19928;DHT22;10126;50.876;4.470;2023-03-26T12:44:55;8.40;99.90
19928;DHT22;10126;50.876;4.470;2023-03-26T12:47:19;8.40;99.90
19928;DHT22;10126;50.876;4.470;2023-03-26T12:49:20;8.40;99.90
19928;DHT22;10126;50.876;4.470;2023-03-26T12:51:54;8.30;99.90
19928;DHT22;10126;50.876;4.470;2023-03-26T12:59:00;8.20;99.90
19928;DHT22;10126;50.876;4.470;2023-03-26T13:03:37;8.20;99.90
19928;DHT22;10126;50.876;4.470;2023-03-26T13:08:50;8.30;99.90
19928;DHT22;10126;50.876;4.470;2023-03-26T13:15:43;8.60;99.90
19928;DHT22;10126;50.876;4.470;2023-03-26T13:20:46;8.60;99.90
19928;DHT22;10126;50.876;4.470;2023-03-26T13:22:54;8.60;99.90
19928;DHT22;10126;50.876;4.470;2023-03-26T13:34:08;8.60;99.90
19928;DHT22;10126;50.876;4.470;2023-03-26T13:36:15;8.70;99.90
19928;DHT22;10126;50.876;4.470;2023-03-26T13:45:57;8.70;99.90
19928;DHT22;10126;50.876;4.470;2023-03-26T13:48:01;8.80;99.90
19928;DHT22;10126;50.876;4.470;2023-03-26T13:50:13;8.80;99.90
19928;DHT22;10126;50.876;4.470;2023-03-26T13:52:26;8.70;99.90
19928;DHT22;10126;50.876;4.470;2023-03-26T13:54:42;8.70;99.90
19928;DHT22;10126;50.876;4.470;2023-03-26T13:57:09;8.70;99.90
19928;DHT22;10126;50.876;4.470;2023-03-26T13:59:21;8.80;99.90
19928;DHT22;10126;50.876;4.470;2023-03-26T14:01:31;8.90;99.90
19928;DHT22;10126;50.876;4.470;2023-03-26T14:05:54;8.90;99.90
19928;DHT22;10126;50.876;4.470;2023-03-26T14:08:04;8.70;99.90
19928;DHT22;10126;50.876;4.470;2023-03-26T14:10:16;8.70;99.90
19928;DHT22;10126;50.876;4.470;2023-03-26T14:14:36;8.90;99.90
19928;DHT22;10126;50.876;4.470;2023-03-26T14:16:45;8.90;99.90
19928;DHT22;10126;50.876;4.470;2023-03-26T14:19:11;8.90;99.90
19928;DHT22;10126;50.876;4.470;2023-03-26T14:31:14;8.80;99.90
19928;DHT22;10126;50.876;4.470;2023-03-26T14:35:40;8.90;99.90
19928;DHT22;10126;50.876;4.470;2023-03-26T14:42:51;8.90;99.90
19928;DHT22;10126;50.876;4.470;2023-03-26T14:51:48;8.70;99.90
19928;DHT22;10126;50.876;4.470;2023-03-26T14:54:28;8.70;99.90
19928;DHT22;10126;50.876;4.470;2023-03-26T15:01:25;8.90;99.90
19928;DHT22;10126;50.876;4.470;2023-03-26T15:42:34;9.40;99.90
19928;DHT22;10126;50.876;4.470;2023-03-26T15:49:53;9.20;99.90
19928;DHT22;10126;50.876;4.470;2023-03-26T15:59:06;9.10;99.90
19928;DHT22;10126;50.876;4.470;2023-03-26T16:13:35;8.30;99.90
19928;DHT22;10126;50.876;4.470;2023-03-26T16:15:37;8.30;99.90
19928;DHT22;10126;50.876;4.470;2023-03-26T16:20:30;8.30;99.90
19928;DHT22;10126;50.876;4.470;2023-03-26T16:23:00;8.20;99.90
19928;DHT22;10126;50.876;4.470;2023-03-26T16:25:30;8.20;99.90
19928;DHT22;10126;50.876;4.470;2023-03-26T16:27:33;8.20;99.90
19928;DHT22;10126;50.876;4.470;2023-03-26T16:32:14;8.20;99.90
19928;DHT22;10126;50.876;4.470;2023-03-26T16:36:45;8.30;99.90
19928;DHT22;10126;50.876;4.470;2023-03-26T16:43:24;8.30;99.90
19928;DHT22;10126;50.876;4.470;2023-03-26T16:48:49;8.40;99.90
19928;DHT22;10126;50.876;4.470;2023-03-26T16:55:56;8.40;99.90
19928;DHT22;10126;50.876;4.470;2023-03-26T17:00:47;8.40;99.90
19928;DHT22;10126;50.876;4.470;2023-03-26T17:03:05;8.40;99.90
19928;DHT22;10126;50.876;4.470;2023-03-26T17:07:50;8.40;99.90
19928;DHT22;10126;50.876;4.470;2023-03-26T17:12:17;8.40;99.90
19928;DHT22;10126;50.876;4.470;2023-03-26T17:18:30;8.40;99.90
19928;DHT22;10126;50.876;4.470;2023-03-26T17:24:36;8.30;99.90
19928;DHT22;10126;50.876;4.470;2023-03-26T17:33:34;8.20;99.90
19928;DHT22;10126;50.876;4.470;2023-03-26T17:35:43;8.20;99.90
19928;DHT22;10126;50.876;4.470;2023-03-26T17:37:45;8.20;99.90
19928;DHT22;10126;50.876;4.470;2023-03-26T17:44:36;8.10;99.90
19928;DHT22;10126;50.876;4.470;2023-03-26T17:46:44;8.10;99.90
19928;DHT22;10126;50.876;4.470;2023-03-26T17:48:51;8.10;99.90
19928;DHT22;10126;50.876;4.470;2023-03-26T17:50:58;8.00;99.90
19928;DHT22;10126;50.876;4.470;2023-03-26T17:53:03;8.00;99.90
19928;DHT22;10126;50.876;4.470;2023-03-26T17:55:08;8.00;99.90
19928;DHT22;10126;50.876;4.470;2023-03-26T17:59:24;8.00;99.90
19928;DHT22;10126;50.876;4.470;2023-03-26T18:01:31;7.90;99.90
19928;DHT22;10126;50.876;4.470;2023-03-26T18:03:37;7.90;99.90
19928;DHT22;10126;50.876;4.470;2023-03-26T18:05:40;7.90;99.90
19928;DHT22;10126;50.876;4.470;2023-03-26T18:10:31;7.80;99.90
19928;DHT22;10126;50.876;4.470;2023-03-26T18:17:31;7.80;99.90
19928;DHT22;10126;50.876;4.470;2023-03-26T18:20:04;7.80;99.90
19928;DHT22;10126;50.876;4.470;2023-03-26T18:22:18;7.70;99.90
19928;DHT22;10126;50.876;4.470;2023-03-26T18:24:26;7.70;99.90
19928;DHT22;10126;50.876;4.470;2023-03-26T18:26:39;7.70;99.90
19928;DHT22;10126;50.876;4.470;2023-03-26T18:28:43;7.70;99.90
19928;DHT22;10126;50.876;4.470;2023-03-26T18:30:48;7.60;99.90
19928;DHT22;10126;50.876;4.470;2023-03-26T18:33:17;7.60;99.90
19928;DHT22;10126;50.876;4.470;2023-03-26T18:35:20;7.60;99.90
19928;DHT22;10126;50.876;4.470;2023-03-26T18:37:30;7.60;99.90
19928;DHT22;10126;50.876;4.470;2023-03-26T18:39:33;7.60;99.90
19928;DHT22;10126;50.876;4.470;2023-03-26T18:41:36;7.50;99.90
19928;DHT22;10126;50.876;4.470;2023-03-26T18:43:38;7.50;99.90
19928;DHT22;10126;50.876;4.470;2023-03-26T18:45:39;7.50;99.90
19928;DHT22;10126;50.876;4.470;2023-03-26T18:47:40;7.50;99.90
19928;DHT22;10126;50.876;4.470;2023-03-26T18:49:44;7.50;99.90
19928;DHT22;10126;50.876;4.470;2023-03-26T18:51:45;7.50;99.90
19928;DHT22;10126;50.876;4.470;2023-03-26T18:53:50;7.50;99.90
19928;DHT22;10126;50.876;4.470;2023-03-26T18:55:51;7.40;99.90
19928;DHT22;10126;50.876;4.470;2023-03-26T18:57:52;7.40;99.90
19928;DHT22;10126;50.876;4.470;2023-03-26T18:59:55;7.40;99.90
19928;DHT22;10126;50.876;4.470;2023-03-26T19:01:58;7.30;99.90